Terminal Aerodrome Forecast
Issued by NWS Blacksburg, VA

Home | Current Version | Previous Version | Text Only | Print | Product List | Glossary On
Versions: 1 2 3 4 5 6 7 8 9 10 11 12 13 14 15 16 17 18 19 20 21 22 23 24
617
FTUS41 KRNK 261613 AAA
TAFBLF
TAF AMD
KBLF 261613Z 2616/2712 15008KT 4SM -RA BKN020 OVC060
      TEMPO 2616/2618 2SM -RA OVC015
     FM261830 17006KT P6SM SCT025 BKN060
     FM262000 17011KT P6SM BKN040
     FM270000 17009KT 6SM -SHRA BKN035
     FM270200 17008KT P6SM BKN025
     FM270600 18006KT P6SM VCSH BKN030=

USA.gov is the U.S. government's official web portal to all federal, state and local government web resources and services.